Time;durP1;ratioP1;P1;durP2;ratioP2;P2;SDS_P1;SDS_P2;PMS_P1;PMS_P2;Temp;Humidity;BMP_temperature;BMP_pressure;BME280_temperature;BME280_humidity;BME280_pressure;Samples;Min_cycle;Max_cycle;Signal;HPM_P1;HPM_P2
2021/09/09 00:01:58;;;;;;;3.70;3.50;;;;;;;;;;5114033;28;20062;-77
2021/09/09 00:04:24;;;;;;;3.50;3.30;;;;;;;;;;5114068;28;20032;-77
2021/09/09 00:06:49;;;;;;;3.75;3.55;;;;;;;;;;5114308;28;20094;-77
2021/09/09 00:09:16;;;;;;;3.67;3.47;;;;;;;;;;5114037;28;20023;-78
2021/09/09 00:11:41;;;;;;;3.58;3.38;;;;;;;;;;5113926;28;20032;-77
2021/09/09 00:14:07;;;;;;;3.92;3.72;;;;;;;;;;5112607;28;20023;-77
2021/09/09 00:16:33;;;;;;;2.67;2.50;;;;;;;;;;5114218;28;20428;-77
2021/09/09 00:18:59;;;;;;;2.65;2.47;;;;;;;;;;5113762;28;20484;-78
2021/09/09 00:21:25;;;;;;;3.10;2.90;;;;;;;;;;5114020;28;20032;-77
2021/09/09 00:23:50;;;;;;;4.05;3.85;;;;;;;;;;5113753;28;20490;-78
2021/09/09 00:26:16;;;;;;;2.95;2.75;;;;;;;;;;5113834;28;20031;-77
2021/09/09 00:28:42;;;;;;;3.30;3.10;;;;;;;;;;5113801;28;20534;-77
2021/09/09 00:31:07;;;;;;;3.60;3.40;;;;;;;;;;5113716;28;20067;-78
2021/09/09 00:33:36;;;;;;;3.10;2.90;;;;;;;;;;5115440;28;20088;-77
2021/09/09 00:36:02;;;;;;;3.92;3.72;;;;;;;;;;5113700;28;20016;-77
2021/09/09 00:38:28;;;;;;;3.75;3.55;;;;;;;;;;5113959;28;20027;-77
2021/09/09 00:40:54;;;;;;;3.13;2.92;;;;;;;;;;5113705;28;20027;-77
2021/09/09 00:43:20;;;;;;;4.05;3.85;;;;;;;;;;5113616;28;20024;-77
2021/09/09 00:45:50;;;;;;;3.42;3.22;;;;;;;;;;5113700;28;20102;-78
2021/09/09 00:48:16;;;;;;;1.60;1.50;;;;;;;;;;5113563;28;20386;-76
2021/09/09 00:50:42;;;;;;;1.88;1.77;;;;;;;;;;5113522;28;20387;-77
2021/09/09 00:53:07;;;;;;;7.72;7.18;;;;;;;;;;5112325;28;20024;-77
2021/09/09 00:55:33;;;;;;;3.38;3.17;;;;;;;;;;5114511;28;20032;-77
2021/09/09 00:57:59;;;;;;;4.35;4.15;;;;;;;;;;5113804;28;20464;-77
2021/09/09 01:00:25;;;;;;;4.13;3.92;;;;;;;;;;5116090;28;20031;-77
2021/09/09 01:02:51;;;;;;;3.83;3.63;;;;;;;;;;5124282;28;20098;-76
2021/09/09 01:05:17;;;;;;;3.70;3.50;;;;;;;;;;5135526;28;20018;-78
2021/09/09 01:07:42;;;;;;;3.08;2.88;;;;;;;;;;5126289;28;20015;-77
2021/09/09 01:10:09;;;;;;;3.58;3.38;;;;;;;;;;5116425;28;20063;-76
2021/09/09 01:12:34;;;;;;;3.38;3.17;;;;;;;;;;5117644;28;20119;-77
2021/09/09 01:15:00;;;;;;;3.65;3.45;;;;;;;;;;5117051;28;20095;-78
2021/09/09 01:17:26;;;;;;;3.45;3.25;;;;;;;;;;5117225;28;20133;-77
2021/09/09 01:19:52;;;;;;;2.72;2.53;;;;;;;;;;5117216;28;20388;-78
2021/09/09 01:22:17;;;;;;;3.53;3.33;;;;;;;;;;5117032;28;20528;-78
2021/09/09 01:24:43;;;;;;;3.55;3.35;;;;;;;;;;5116791;28;20031;-78
2021/09/09 01:27:09;;;;;;;2.90;2.70;;;;;;;;;;5116855;28;20487;-78
2021/09/09 01:29:37;;;;;;;3.72;3.53;;;;;;;;;;5118343;28;20020;-79
2021/09/09 01:32:04;;;;;;;4.45;4.20;;;;;;;;;;5116584;28;20110;-77
2021/09/09 01:34:31;;;;;;;3.33;3.13;;;;;;;;;;5116614;28;20015;-78
2021/09/09 01:36:56;;;;;;;3.92;3.72;;;;;;;;;;5116607;28;20020;-78
2021/09/09 01:39:23;;;;;;;3.58;3.38;;;;;;;;;;5116651;28;20490;-78
2021/09/09 01:41:54;;;;;;;3.20;3.00;;;;;;;;;;5115271;28;20020;-78
2021/09/09 01:44:21;;;;;;;4.60;4.38;;;;;;;;;;5117377;28;20020;-78
2021/09/09 01:46:47;;;;;;;2.40;2.22;;;;;;;;;;5116683;28;20379;-78
2021/09/09 01:49:14;;;;;;;3.72;3.53;;;;;;;;;;5116867;28;20026;-78
2021/09/09 01:51:39;;;;;;;3.50;3.30;;;;;;;;;;5116263;28;20032;-78
2021/09/09 01:54:05;;;;;;;3.13;2.92;;;;;;;;;;5116595;28;20072;-78
2021/09/09 01:56:31;;;;;;;4.20;3.95;;;;;;;;;;5116483;28;20027;-78
2021/09/09 01:58:57;;;;;;;4.22;4.03;;;;;;;;;;5116169;28;20472;-78
2021/09/09 02:01:23;;;;;;;3.80;3.60;;;;;;;;;;5116058;28;20110;-78
2021/09/09 02:03:49;;;;;;;3.42;3.22;;;;;;;;;;5116142;28;20051;-78
2021/09/09 02:06:15;;;;;;;1.30;1.20;;;;;;;;;;5116162;28;20454;-78
2021/09/09 02:08:41;;;;;;;2.88;2.67;;;;;;;;;;5114704;28;20032;-78
2021/09/09 02:11:07;;;;;;;4.65;4.43;;;;;;;;;;5115856;28;20059;-78
2021/09/09 02:13:33;;;;;;;3.80;3.60;;;;;;;;;;5115922;28;20062;-78
2021/09/09 02:15:59;;;;;;;5.07;4.80;;;;;;;;;;5115897;28;20035;-78
2021/09/09 02:18:25;;;;;;;3.05;2.85;;;;;;;;;;5115486;28;20040;-78
2021/09/09 02:20:50;;;;;;;3.47;3.28;;;;;;;;;;5114630;28;20019;-78
2021/09/09 02:23:16;;;;;;;3.75;3.55;;;;;;;;;;5115652;28;20028;-79
2021/09/09 02:25:42;;;;;;;4.38;4.13;;;;;;;;;;5115821;28;20524;-78
2021/09/09 02:28:07;;;;;;;1.80;1.70;;;;;;;;;;5115504;28;20422;-77
2021/09/09 02:30:34;;;;;;;3.25;3.05;;;;;;;;;;5115616;28;20111;-77
2021/09/09 02:32:59;;;;;;;3.17;2.97;;;;;;;;;;5115537;28;20112;-77
2021/09/09 02:35:25;;;;;;;2.85;2.65;;;;;;;;;;5115596;28;20023;-77
2021/09/09 02:37:51;;;;;;;3.75;3.55;;;;;;;;;;5115469;28;20036;-77
2021/09/09 02:40:16;;;;;;;3.53;3.33;;;;;;;;;;5115691;28;20038;-77
2021/09/09 02:42:43;;;;;;;3.58;3.38;;;;;;;;;;5115471;28;20031;-78
2021/09/09 02:45:10;;;;;;;3.00;2.80;;;;;;;;;;5115201;28;20031;-77
2021/09/09 02:47:36;;;;;;;3.85;3.65;;;;;;;;;;5115542;28;20118;-79
2021/09/09 02:50:02;;;;;;;2.83;2.63;;;;;;;;;;5113835;28;20027;-78
2021/09/09 02:52:28;;;;;;;3.95;3.75;;;;;;;;;;5115304;28;20024;-79
2021/09/09 02:54:53;;;;;;;4.28;4.07;;;;;;;;;;5115533;28;20514;-79
2021/09/09 02:57:19;;;;;;;3.15;2.95;;;;;;;;;;5115025;28;20106;-78
2021/09/09 02:59:45;;;;;;;3.20;3.00;;;;;;;;;;5114962;28;20035;-78
2021/09/09 03:02:11;;;;;;;4.13;3.92;;;;;;;;;;5114886;28;20034;-79
2021/09/09 03:04:36;;;;;;;2.50;2.30;;;;;;;;;;5115041;28;20100;-78
2021/09/09 03:07:02;;;;;;;4.15;3.95;;;;;;;;;;5114808;28;20129;-78
2021/09/09 03:09:28;;;;;;;3.53;3.33;;;;;;;;;;5114819;28;20031;-78
2021/09/09 03:11:53;;;;;;;3.45;3.25;;;;;;;;;;5114668;28;20038;-78
2021/09/09 03:14:19;;;;;;;4.03;3.83;;;;;;;;;;5114678;27;20471;-78
2021/09/09 03:16:45;;;;;;;3.45;3.25;;;;;;;;;;5115010;28;20081;-78
2021/09/09 03:19:11;;;;;;;3.13;2.92;;;;;;;;;;5114439;28;20044;-78
2021/09/09 03:21:37;;;;;;;4.00;3.80;;;;;;;;;;5114666;28;20036;-78
2021/09/09 03:24:03;;;;;;;4.10;3.88;;;;;;;;;;5114526;28;20487;-78
2021/09/09 03:26:28;;;;;;;3.55;3.35;;;;;;;;;;5114547;28;20027;-78
2021/09/09 03:28:54;;;;;;;4.57;4.35;;;;;;;;;;5114483;28;20031;-78
2021/09/09 03:31:20;;;;;;;3.50;3.30;;;;;;;;;;5114335;28;20028;-78
2021/09/09 03:33:45;;;;;;;3.22;3.03;;;;;;;;;;5114124;28;20028;-78
2021/09/09 03:36:11;;;;;;;3.25;3.05;;;;;;;;;;5114460;28;20110;-78
2021/09/09 03:38:36;;;;;;;4.07;3.88;;;;;;;;;;5112994;28;20055;-78
2021/09/09 03:41:02;;;;;;;4.47;4.22;;;;;;;;;;5112985;28;20103;-77
2021/09/09 03:43:28;;;;;;;3.97;3.78;;;;;;;;;;5114423;28;20032;-79
2021/09/09 03:45:54;;;;;;;5.07;3.92;;;;;;;;;;5112957;28;20028;-78
2021/09/09 03:48:19;;;;;;;3.55;3.35;;;;;;;;;;5114159;28;20024;-78
2021/09/09 03:50:45;;;;;;;4.78;4.53;;;;;;;;;;5114131;27;20020;-77
2021/09/09 03:53:10;;;;;;;3.63;3.42;;;;;;;;;;5112997;28;20467;-78
2021/09/09 03:55:36;;;;;;;3.75;3.55;;;;;;;;;;5114118;28;20030;-77
2021/09/09 03:58:02;;;;;;;4.28;4.07;;;;;;;;;;5114182;28;20107;-77
2021/09/09 04:00:28;;;;;;;3.58;3.38;;;;;;;;;;5114090;28;20020;-77
2021/09/09 04:02:53;;;;;;;3.40;3.20;;;;;;;;;;5114026;28;20053;-77
2021/09/09 04:05:19;;;;;;;3.78;3.58;;;;;;;;;;5113930;28;20023;-77
2021/09/09 04:07:45;;;;;;;3.95;3.75;;;;;;;;;;5114097;28;20027;-78
2021/09/09 04:10:11;;;;;;;4.65;4.43;;;;;;;;;;5114328;28;20024;-77
2021/09/09 04:12:36;;;;;;;4.47;4.28;;;;;;;;;;5113937;28;20064;-77
2021/09/09 04:15:02;;;;;;;3.65;3.45;;;;;;;;;;5114125;28;20024;-78
2021/09/09 04:17:33;;;;;;;5.10;4.82;;;;;;;;;;5113994;28;20047;-78
2021/09/09 04:19:58;;;;;;;;;;;;;;;;;;5114505;28;20026;-78
2021/09/09 04:22:24;;;;;;;4.40;4.20;;;;;;;;;;5114070;28;19915;-78
2021/09/09 04:24:50;;;;;;;4.05;3.85;;;;;;;;;;5114053;28;20070;-78
2021/09/09 04:27:15;;;;;;;3.95;3.75;;;;;;;;;;5114091;28;20023;-78
2021/09/09 04:29:41;;;;;;;3.55;3.35;;;;;;;;;;5113721;28;20027;-78
2021/09/09 04:32:07;;;;;;;4.43;4.20;;;;;;;;;;5113578;28;20063;-78
2021/09/09 04:34:32;;;;;;;3.72;3.53;;;;;;;;;;5113746;28;20106;-77
2021/09/09 04:36:58;;;;;;;3.83;3.63;;;;;;;;;;5113572;28;20027;-82
2021/09/09 04:39:24;;;;;;;3.55;3.35;;;;;;;;;;5112329;28;20146;-79
2021/09/09 04:41:49;;;;;;;3.45;3.25;;;;;;;;;;5113992;28;20111;-77
2021/09/09 04:44:15;;;;;;;3.03;2.83;;;;;;;;;;5114601;28;20023;-79
2021/09/09 04:46:41;;;;;;;4.35;4.15;;;;;;;;;;5117592;27;20024;-77
2021/09/09 04:49:06;;;;;;;2.72;2.55;;;;;;;;;;5117542;28;20020;-77
2021/09/09 04:51:32;;;;;;;4.03;3.83;;;;;;;;;;5117417;28;20072;-78
2021/09/09 04:53:57;;;;;;;4.97;4.63;;;;;;;;;;5117471;28;20094;-77
2021/09/09 04:56:23;;;;;;;1.17;1.08;;;;;;;;;;5117402;27;20218;-77
2021/09/09 04:58:49;;;;;;;4.10;3.90;;;;;;;;;;5124919;28;20031;-78
2021/09/09 05:01:14;;;;;;;2.35;2.22;;;;;;;;;;5119233;28;20352;-78
2021/09/09 05:03:40;;;;;;;4.28;4.05;;;;;;;;;;5129687;28;20049;-78
2021/09/09 05:06:05;;;;;;;3.22;3.03;;;;;;;;;;5138023;28;20028;-77
2021/09/09 05:08:31;;;;;;;3.95;3.75;;;;;;;;;;5124015;28;20019;-77
2021/09/09 05:10:57;;;;;;;3.47;3.28;;;;;;;;;;5117833;28;20110;-77
2021/09/09 05:13:23;;;;;;;4.45;4.22;;;;;;;;;;5117512;28;20157;-84
2021/09/09 05:15:48;;;;;;;2.38;2.22;;;;;;;;;;5117550;28;20073;-77
2021/09/09 05:18:14;;;;;;;2.28;2.15;;;;;;;;;;5117003;28;20085;-78
2021/09/09 05:20:39;;;;;;;1.92;1.83;;;;;;;;;;5117052;28;20023;-78
2021/09/09 05:23:05;;;;;;;3.45;3.25;;;;;;;;;;5116889;28;20100;-77
2021/09/09 05:25:31;;;;;;;2.80;2.60;;;;;;;;;;5116875;27;20094;-78
2021/09/09 05:27:56;;;;;;;1.98;1.88;;;;;;;;;;5116722;28;20448;-79
2021/09/09 05:30:22;;;;;;;2.67;2.47;;;;;;;;;;5115485;28;20047;-78
2021/09/09 05:32:48;;;;;;;2.03;1.92;;;;;;;;;;5115703;28;20035;-79
2021/09/09 05:35:14;;;;;;;3.53;3.33;;;;;;;;;;5116809;28;20028;-78
2021/09/09 05:37:39;;;;;;;3.88;3.67;;;;;;;;;;5116586;28;20016;-78
2021/09/09 05:40:06;;;;;;;2.47;2.35;;;;;;;;;;5116735;28;20030;-82
2021/09/09 05:42:31;;;;;;;1.10;1.00;;;;;;;;;;5116470;28;20353;-80
2021/09/09 05:44:57;;;;;;;2.08;1.98;;;;;;;;;;5116424;28;20027;-80
2021/09/09 05:47:23;;;;;;;3.40;3.20;;;;;;;;;;5116350;28;20019;-79
2021/09/09 05:49:48;;;;;;;1.27;1.17;;;;;;;;;;5116670;28;20020;-80
2021/09/09 05:52:14;;;;;;;1.65;1.55;;;;;;;;;;5116490;28;20114;-77
2021/09/09 05:54:40;;;;;;;3.75;3.55;;;;;;;;;;5116078;28;20051;-76
2021/09/09 05:57:05;;;;;;;3.17;2.97;;;;;;;;;;5116544;28;20015;-78
2021/09/09 05:59:31;;;;;;;2.58;2.40;;;;;;;;;;5116048;28;20023;-77
2021/09/09 06:01:57;;;;;;;2.00;1.90;;;;;;;;;;5116082;28;20129;-79
2021/09/09 06:04:26;;;;;;;1.92;1.83;;;;;;;;;;5116012;28;20469;-77
2021/09/09 06:06:52;;;;;;;2.92;2.72;;;;;;;;;;5116591;28;20019;-77
2021/09/09 06:09:18;;;;;;;2.05;1.95;;;;;;;;;;5114648;28;20024;-79
2021/09/09 06:11:44;;;;;;;2.65;2.47;;;;;;;;;;5114521;28;20020;-79
2021/09/09 06:14:10;;;;;;;2.38;2.28;;;;;;;;;;5115835;28;20020;-79
2021/09/09 06:16:37;;;;;;;3.78;3.58;;;;;;;;;;5115932;28;20089;-78
2021/09/09 06:19:03;;;;;;;2.58;2.42;;;;;;;;;;5116130;28;20174;-77
2021/09/09 06:21:28;;;;;;;3.15;2.95;;;;;;;;;;5117238;28;20063;-81
2021/09/09 06:23:54;;;;;;;2.55;2.40;;;;;;;;;;5115818;28;20062;-81
2021/09/09 06:26:19;;;;;;;2.22;2.13;;;;;;;;;;5114378;28;20035;-79
2021/09/09 06:28:46;;;;;;;2.30;2.20;;;;;;;;;;5115825;28;20106;-81
2021/09/09 06:31:12;;;;;;;3.15;2.95;;;;;;;;;;5114333;28;20023;-81
2021/09/09 06:33:38;;;;;;;3.30;3.10;;;;;;;;;;5114182;28;20112;-81
2021/09/09 06:36:04;;;;;;;1.67;1.58;;;;;;;;;;5115671;28;20108;-79
2021/09/09 06:38:30;;;;;;;2.47;2.30;;;;;;;;;;5114063;28;20476;-79
2021/09/09 06:40:56;;;;;;;1.67;1.58;;;;;;;;;;5115377;28;20030;-81
2021/09/09 06:43:21;;;;;;;1.77;1.67;;;;;;;;;;5114083;28;20035;-81
2021/09/09 06:45:47;;;;;;;2.67;2.47;;;;;;;;;;5114061;28;20019;-81
2021/09/09 06:48:14;;;;;;;2.40;2.25;;;;;;;;;;5115157;28;20028;-80
2021/09/09 06:50:40;;;;;;;2.15;2.05;;;;;;;;;;5115165;28;20094;-81
2021/09/09 06:53:06;;;;;;;2.15;2.05;;;;;;;;;;5113704;28;20042;-82
2021/09/09 06:55:31;;;;;;;2.20;2.10;;;;;;;;;;5114969;28;20019;-81
2021/09/09 06:57:58;;;;;;;1.20;1.10;;;;;;;;;;5115125;28;20429;-81
2021/09/09 07:00:24;;;;;;;2.03;1.92;;;;;;;;;;5114987;28;20023;-88
2021/09/09 07:02:49;;;;;;;2.53;2.35;;;;;;;;;;5114840;28;20061;-82
2021/09/09 07:05:15;;;;;;;1.67;1.58;;;;;;;;;;5114800;28;20023;-82
2021/09/09 07:07:41;;;;;;;1.50;1.40;;;;;;;;;;5114438;28;20023;-82
2021/09/09 07:10:08;;;;;;;2.13;2.03;;;;;;;;;;5113504;28;20028;-81
2021/09/09 07:12:34;;;;;;;1.33;1.20;;;;;;;;;;5114556;28;20470;-81
2021/09/09 07:15:00;;;;;;;2.50;2.30;;;;;;;;;;5114620;28;20034;-82
2021/09/09 07:17:26;;;;;;;1.50;1.40;;;;;;;;;;5114500;28;20043;-82
2021/09/09 07:19:51;;;;;;;1.33;1.23;;;;;;;;;;5113271;28;20050;-81
2021/09/09 07:22:17;;;;;;;3.08;2.88;;;;;;;;;;5114561;28;20019;-82
2021/09/09 07:24:42;;;;;;;1.33;1.17;;;;;;;;;;5113141;28;20114;-82
2021/09/09 07:27:09;;;;;;;1.30;1.20;;;;;;;;;;5114442;28;20486;-81
2021/09/09 07:29:34;;;;;;;1.35;1.25;;;;;;;;;;5114465;28;20028;-81
2021/09/09 07:32:00;;;;;;;1.23;1.10;;;;;;;;;;5114260;28;20031;-82
2021/09/09 07:45:59;;;;;;;1.63;1.52;;;;;;;;;;5131785;27;20379;-75
2021/09/09 07:48:28;;;;;;;2.20;2.10;;;;;;;;;;5132086;28;20059;-76
2021/09/09 07:50:54;;;;;;;1.17;1.08;;;;;;;;;;5111717;28;20055;-75
2021/09/09 07:53:19;;;;;;;2.22;2.13;;;;;;;;;;5131522;28;20423;-76
2021/09/09 07:55:45;;;;;;;1.77;1.67;;;;;;;;;;5131491;28;20110;-77
2021/09/09 07:58:11;;;;;;;2.00;1.90;;;;;;;;;;5131527;28;20031;-74
2021/09/09 08:00:37;;;;;;;0.50;0.30;;;;;;;;;;5131453;28;20035;-74
2021/09/09 08:03:02;;;;;;;1.38;1.27;;;;;;;;;;5131509;28;20027;-74
2021/09/09 08:05:28;;;;;;;0.98;0.88;;;;;;;;;;5131498;28;20379;-74
2021/09/09 08:07:54;;;;;;;1.50;1.40;;;;;;;;;;5131446;28;20023;-74
2021/09/09 08:10:20;;;;;;;1.85;1.75;;;;;;;;;;5131525;28;20027;-74
2021/09/09 08:12:47;;;;;;;1.73;1.63;;;;;;;;;;5131357;28;20030;-74
2021/09/09 08:15:14;;;;;;;1.88;1.77;;;;;;;;;;5131204;28;20038;-75
2021/09/09 08:17:41;;;;;;;0.47;0.28;;;;;;;;;;5131598;28;20015;-74
2021/09/09 08:20:07;;;;;;;2.28;2.17;;;;;;;;;;5112694;28;20049;-75
2021/09/09 08:22:33;;;;;;;1.95;1.85;;;;;;;;;;5112619;28;20076;-75
2021/09/09 08:24:59;;;;;;;2.08;1.98;;;;;;;;;;5112716;28;20024;-76
2021/09/09 08:27:29;;;;;;;0.95;0.52;;;;;;;;;;5131107;28;20019;-76
2021/09/09 08:29:55;;;;;;;1.83;1.73;;;;;;;;;;5131368;28;20031;-77
2021/09/09 08:32:20;;;;;;;1.90;1.80;;;;;;;;;;5112599;28;20084;-77
2021/09/09 08:34:46;;;;;;;2.38;0.70;;;;;;;;;;5130412;28;20035;-76
2021/09/09 08:37:12;;;;;;;1.15;0.65;;;;;;;;;;5130916;28;20031;-79
2021/09/09 08:39:37;;;;;;;1.80;1.70;;;;;;;;;;5131103;28;20110;-77
2021/09/09 08:42:03;;;;;;;1.45;1.35;;;;;;;;;;5112295;28;20023;-76
2021/09/09 08:44:29;;;;;;;1.70;1.60;;;;;;;;;;5112373;28;20471;-77
2021/09/09 08:46:55;;;;;;;2.00;1.90;;;;;;;;;;5116757;28;20032;-76
2021/09/09 08:49:25;;;;;;;1.77;1.67;;;;;;;;;;5098634;28;20498;-76
2021/09/09 08:51:54;;;;;;;0.40;0.25;;;;;;;;;;5116867;28;20084;-76
2021/09/09 08:54:20;;;;;;;1.95;1.85;;;;;;;;;;5116926;28;20027;-77
2021/09/09 08:56:45;;;;;;;1.85;1.75;;;;;;;;;;5116649;28;20501;-76
2021/09/09 08:59:11;;;;;;;1.98;1.88;;;;;;;;;;5116713;28;20037;-76
2021/09/09 09:02:01;;;;;;;0.82;0.80;;;;;;;;;;5098342;28;20141;-74
2021/09/09 09:04:27;;;;;;;1.70;1.60;;;;;;;;;;5116936;28;20027;-82
2021/09/09 09:06:55;;;;;;;0.52;0.40;;;;;;;;;;5114690;28;20016;-76
2021/09/09 09:09:24;;;;;;;1.75;1.65;;;;;;;;;;5106157;28;20040;-74
2021/09/09 09:11:51;;;;;;;0.50;0.20;;;;;;;;;;5116871;28;20019;-75
2021/09/09 09:14:22;;;;;;;1.48;1.38;;;;;;;;;;5115385;28;20475;-75
2021/09/09 09:16:52;;;;;;;2.30;2.10;;;;;;;;;;5107231;28;20544;-79
2021/09/09 09:19:19;;;;;;;;;;;;;;;;;;5115048;28;20049;-81
2021/09/09 09:21:49;;;;;;;1.58;1.48;;;;;;;;;;5116269;28;20006;-73
2021/09/09 09:24:19;;;;;;;1.67;1.58;;;;;;;;;;5116490;28;20034;-75
2021/09/09 09:27:04;;;;;;;1.27;1.17;;;;;;;;;;5098313;28;20077;-73
2021/09/09 09:29:30;;;;;;;1.33;1.23;;;;;;;;;;5097872;28;20023;-73
2021/09/09 09:32:11;;;;;;;1.33;1.23;;;;;;;;;;5097952;28;20126;-80
2021/09/09 09:34:38;;;;;;;1.83;1.73;;;;;;;;;;5116421;28;20066;-76
2021/09/09 09:37:04;;;;;;;1.63;1.52;;;;;;;;;;5115961;28;20027;-80
2021/09/09 09:39:30;;;;;;;0.50;0.30;;;;;;;;;;5115854;28;20024;-75
2021/09/09 09:42:03;;;;;;;2.58;2.35;;;;;;;;;;5115832;28;20502;-76
2021/09/09 09:44:38;;;;;;;1.80;1.70;;;;;;;;;;5115664;28;20071;-81
2021/09/09 09:47:15;;;;;;;1.42;1.33;;;;;;;;;;5113016;28;20024;-75
2021/09/09 09:49:43;;;;;;;2.15;2.05;;;;;;;;;;5094935;28;20426;-75
2021/09/09 09:52:17;;;;;;;0.57;0.30;;;;;;;;;;5115597;28;20073;-75
2021/09/09 09:54:51;;;;;;;1.42;1.33;;;;;;;;;;5115787;28;20023;-76
2021/09/09 09:57:17;;;;;;;1.63;1.52;;;;;;;;;;5115665;28;20088;-82
2021/09/09 09:59:43;;;;;;;1.67;1.58;;;;;;;;;;5126962;28;20024;-81
2021/09/09 10:02:11;;;;;;;0.47;0.28;;;;;;;;;;5127080;28;20059;-76
2021/09/09 10:04:42;;;;;;;2.15;2.05;;;;;;;;;;5134795;28;20019;-75
2021/09/09 10:07:09;;;;;;;2.47;1.85;;;;;;;;;;5105077;28;20172;-76
2021/09/09 10:09:34;;;;;;;0.40;0.15;;;;;;;;;;5115875;28;20043;-75
2021/09/09 10:12:00;;;;;;;0.38;0.25;;;;;;;;;;5115441;28;20028;-75
2021/09/09 10:14:26;;;;;;;1.80;1.70;;;;;;;;;;5115435;28;20065;-76
2021/09/09 10:16:55;;;;;;;0.43;0.20;;;;;;;;;;5115098;28;20076;-75
2021/09/09 10:19:31;;;;;;;1.77;1.67;;;;;;;;;;5115077;28;20020;-78
2021/09/09 10:22:12;;;;;;;0.40;0.20;;;;;;;;;;5115422;28;20019;-75
2021/09/09 10:24:40;;;;;;;1.42;1.33;;;;;;;;;;5115651;28;20054;-75
2021/09/09 10:27:20;;;;;;;1.35;1.25;;;;;;;;;;5115208;28;20098;-74
2021/09/09 10:30:04;;;;;;;0.30;0.10;;;;;;;;;;5096681;28;20436;-74
2021/09/09 10:32:30;;;;;;;0.40;0.25;;;;;;;;;;5114717;28;20076;-75
2021/09/09 10:35:17;;;;;;;0.63;0.25;;;;;;;;;;5113095;28;20036;-73
2021/09/09 10:37:45;;;;;;;0.50;0.20;;;;;;;;;;5111863;28;20059;-74
2021/09/09 10:40:31;;;;;;;0.40;0.17;;;;;;;;;;5114660;28;20024;-74
2021/09/09 10:43:04;;;;;;;0.45;0.22;;;;;;;;;;5114684;28;20019;-73
2021/09/09 10:45:33;;;;;;;1.95;1.85;;;;;;;;;;5114672;28;20035;-76
2021/09/09 10:47:59;;;;;;;2.47;2.38;;;;;;;;;;5114562;28;20400;-74
2021/09/09 10:50:25;;;;;;;1.45;1.35;;;;;;;;;;5114472;28;20030;-74
2021/09/09 10:53:01;;;;;;;0.43;0.20;;;;;;;;;;5114511;28;20028;-74
2021/09/09 10:55:28;;;;;;;0.50;0.22;;;;;;;;;;5114653;28;20020;-74
2021/09/09 10:58:12;;;;;;;1.67;0.50;;;;;;;;;;5114278;28;20028;-78
2021/09/09 11:00:51;;;;;;;1.17;1.08;;;;;;;;;;5114239;28;20391;-77
2021/09/09 11:03:38;;;;;;;2.05;1.95;;;;;;;;;;5096102;28;20028;-77
2021/09/09 11:06:07;;;;;;;1.25;1.15;;;;;;;;;;5114821;28;20102;-76
2021/09/09 11:08:33;;;;;;;1.58;1.48;;;;;;;;;;5095267;28;20028;-73
2021/09/09 11:10:59;;;;;;;0.40;0.10;;;;;;;;;;5113775;28;20027;-74
2021/09/09 11:13:26;;;;;;;1.60;1.50;;;;;;;;;;5114004;28;20030;-74
2021/09/09 11:15:52;;;;;;;0.30;0.10;;;;;;;;;;5114229;28;20023;-74
2021/09/09 11:18:29;;;;;;;1.42;1.33;;;;;;;;;;5113890;28;20080;-75
2021/09/09 11:21:05;;;;;;;0.30;0.10;;;;;;;;;;5095829;28;20027;-76
2021/09/09 11:23:33;;;;;;;1.20;1.10;;;;;;;;;;5114172;28;20063;-77
2021/09/09 11:26:09;;;;;;;1.25;1.15;;;;;;;;;;5114148;28;20020;-76
2021/09/09 11:28:35;;;;;;;1.15;1.05;;;;;;;;;;5113949;28;20451;-76
2021/09/09 11:31:13;;;;;;;1.33;1.23;;;;;;;;;;5095752;28;20066;-77
2021/09/09 11:33:59;;;;;;;1.45;1.35;;;;;;;;;;5095683;28;20106;-76
2021/09/09 11:36:26;;;;;;;0.35;0.20;;;;;;;;;;5114019;28;20069;-76
2021/09/09 11:38:54;;;;;;;0.47;0.22;;;;;;;;;;5095608;28;20047;-76
2021/09/09 11:41:21;;;;;;;2.08;1.98;;;;;;;;;;5096007;28;20027;-77
2021/09/09 11:43:49;;;;;;;1.42;1.33;;;;;;;;;;5113601;28;20103;-77
2021/09/09 11:46:36;;;;;;;0.50;0.30;;;;;;;;;;5113946;28;20023;-76
2021/09/09 11:49:10;;;;;;;1.52;1.42;;;;;;;;;;5113646;28;20027;-76
2021/09/09 11:51:48;;;;;;;0.40;0.13;;;;;;;;;;5095489;28;20080;-77
2021/09/09 11:54:31;;;;;;;1.75;1.65;;;;;;;;;;5113766;28;20024;-77
2021/09/09 11:57:10;;;;;;;0.40;0.10;;;;;;;;;;5113563;28;20028;-77
2021/09/09 11:59:38;;;;;;;1.60;1.50;;;;;;;;;;5113589;28;20023;-77
2021/09/09 12:02:07;;;;;;;2.25;2.15;;;;;;;;;;5095722;28;20019;-77
2021/09/09 12:04:36;;;;;;;1.90;1.80;;;;;;;;;;5113760;28;20050;-77
2021/09/09 12:07:02;;;;;;;0.80;0.77;;;;;;;;;;5113998;28;20025;-77
2021/09/09 12:09:36;;;;;;;1.63;1.52;;;;;;;;;;5113595;28;20020;-77
2021/09/09 12:12:05;;;;;;;1.73;1.63;;;;;;;;;;5113578;28;20099;-76
2021/09/09 12:14:31;;;;;;;1.52;1.42;;;;;;;;;;5113434;28;20050;-77
2021/09/09 12:17:14;;;;;;;1.83;1.73;;;;;;;;;;5113380;28;20464;-77
2021/09/09 12:19:53;;;;;;;0.40;0.20;;;;;;;;;;5095287;28;20471;-74
2021/09/09 12:22:20;;;;;;;1.30;1.20;;;;;;;;;;5117742;28;20443;-77
2021/09/09 12:24:45;;;;;;;1.38;1.27;;;;;;;;;;5099275;28;20027;-75
2021/09/09 12:27:16;;;;;;;1.70;1.60;;;;;;;;;;5117237;28;20035;-74
2021/09/09 12:29:44;;;;;;;1.85;1.75;;;;;;;;;;5117237;28;20169;-74
2021/09/09 12:32:30;;;;;;;0.40;0.20;;;;;;;;;;5117276;28;20047;-74
2021/09/09 12:35:18;;;;;;;0.40;0.10;;;;;;;;;;5117078;28;20023;-79
2021/09/09 12:37:44;;;;;;;2.00;1.90;;;;;;;;;;5116941;28;20081;-73
2021/09/09 12:40:11;;;;;;;0.30;0.10;;;;;;;;;;5117128;28;20031;-74
2021/09/09 12:42:38;;;;;;;0.45;0.20;;;;;;;;;;5116995;28;20397;-77
2021/09/09 12:45:08;;;;;;;0.50;0.28;;;;;;;;;;5116734;28;20047;-75
2021/09/09 12:47:35;;;;;;;0.50;0.20;;;;;;;;;;5117456;28;20098;-74
2021/09/09 12:50:35;;;;;;;1.85;1.75;;;;;;;;;;5117431;28;20031;-77
2021/09/09 12:53:01;;;;;;;2.17;2.08;;;;;;;;;;5116738;28;20106;-74
2021/09/09 12:55:26;;;;;;;0.40;0.15;;;;;;;;;;5098376;28;20535;-74
2021/09/09 12:57:53;;;;;;;1.13;1.02;;;;;;;;;;5098129;28;20046;-74
2021/09/09 13:00:18;;;;;;;1.65;1.55;;;;;;;;;;5116589;28;20034;-74
2021/09/09 13:02:44;;;;;;;1.83;1.73;;;;;;;;;;5116550;28;20023;-74
2021/09/09 13:05:10;;;;;;;1.55;1.45;;;;;;;;;;5116844;28;20031;-76
2021/09/09 13:07:39;;;;;;;1.52;1.42;;;;;;;;;;5116773;28;20043;-73
2021/09/09 13:10:05;;;;;;;2.00;1.90;;;;;;;;;;5117037;28;20030;-74
2021/09/09 13:12:30;;;;;;;2.03;1.92;;;;;;;;;;5116553;28;20084;-77
2021/09/09 13:14:56;;;;;;;1.55;1.45;;;;;;;;;;5116218;28;20032;-74
2021/09/09 13:17:22;;;;;;;7.22;0.30;;;;;;;;;;5116231;28;20073;-76
2021/09/09 13:19:47;;;;;;;1.77;1.67;;;;;;;;;;5116260;28;20098;-74
2021/09/09 13:22:13;;;;;;;1.67;1.58;;;;;;;;;;5116225;28;20055;-75
2021/09/09 13:24:39;;;;;;;1.30;1.20;;;;;;;;;;5116451;28;20027;-74
2021/09/09 13:27:04;;;;;;;1.92;1.83;;;;;;;;;;5115429;28;20028;-74
2021/09/09 13:29:30;;;;;;;0.30;0.10;;;;;;;;;;5116111;28;20031;-73
2021/09/09 13:31:56;;;;;;;1.63;1.52;;;;;;;;;;5116119;28;20019;-74
2021/09/09 13:34:21;;;;;;;0.40;0.20;;;;;;;;;;5112279;28;20368;-76
2021/09/09 13:36:47;;;;;;;1.92;1.83;;;;;;;;;;5113612;28;20070;-74
2021/09/09 13:39:12;;;;;;;0.40;0.20;;;;;;;;;;5096518;28;20027;-74
2021/09/09 13:41:49;;;;;;;0.40;0.17;;;;;;;;;;5116821;28;20020;-74
2021/09/09 13:44:16;;;;;;;0.50;0.20;;;;;;;;;;5116446;28;20043;-74
2021/09/09 13:46:41;;;;;;;1.60;1.50;;;;;;;;;;5097711;28;20035;-73
2021/09/09 13:49:07;;;;;;;1.42;1.33;;;;;;;;;;5116374;28;20028;-75
2021/09/09 13:51:33;;;;;;;1.73;1.63;;;;;;;;;;5098495;28;20031;-75
2021/09/09 13:54:01;;;;;;;0.40;0.13;;;;;;;;;;5115977;28;20034;-76
2021/09/09 13:56:27;;;;;;;1.63;1.52;;;;;;;;;;5116208;28;20027;-75
2021/09/09 13:58:52;;;;;;;1.15;1.05;;;;;;;;;;5129655;28;20020;-74
2021/09/09 14:01:18;;;;;;;2.30;2.20;;;;;;;;;;5131870;28;20028;-75
2021/09/09 14:03:52;;;;;;;1.75;1.65;;;;;;;;;;5119488;28;20027;-74
2021/09/09 14:06:18;;;;;;;1.63;1.52;;;;;;;;;;5117967;28;20459;-74
2021/09/09 14:08:43;;;;;;;1.90;1.80;;;;;;;;;;5116513;28;20027;-73
2021/09/09 14:11:10;;;;;;;1.85;1.75;;;;;;;;;;5115739;28;20055;-75
2021/09/09 14:13:35;;;;;;;1.02;0.95;;;;;;;;;;5115756;28;20027;-74
2021/09/09 14:16:01;;;;;;;1.88;1.77;;;;;;;;;;5115965;28;20176;-74
2021/09/09 14:18:26;;;;;;;1.52;1.42;;;;;;;;;;5115369;28;20028;-73
2021/09/09 14:20:52;;;;;;;1.08;0.95;;;;;;;;;;5115588;28;20102;-75
2021/09/09 14:23:18;;;;;;;1.52;1.42;;;;;;;;;;5115307;28;20521;-74
2021/09/09 14:25:43;;;;;;;1.45;1.35;;;;;;;;;;5115075;28;20464;-74
2021/09/09 14:28:09;;;;;;;1.65;1.55;;;;;;;;;;5115209;28;20016;-74
2021/09/09 14:30:35;;;;;;;2.22;2.13;;;;;;;;;;5115543;28;20471;-74
2021/09/09 14:33:00;;;;;;;2.42;2.28;;;;;;;;;;5097144;28;20084;-74
2021/09/09 14:35:26;;;;;;;0.52;0.40;;;;;;;;;;5115094;28;20028;-74
2021/09/09 14:37:53;;;;;;;1.27;1.17;;;;;;;;;;5096683;28;20024;-75
2021/09/09 14:40:18;;;;;;;1.40;1.30;;;;;;;;;;5115410;28;20120;-75
2021/09/09 14:42:44;;;;;;;1.73;1.63;;;;;;;;;;5114590;28;20031;-74
2021/09/09 14:45:11;;;;;;;2.58;2.40;;;;;;;;;;5115208;28;20039;-75
2021/09/09 14:47:37;;;;;;;0.93;0.82;;;;;;;;;;5115209;28;20075;-74
2021/09/09 14:50:03;;;;;;;1.95;1.85;;;;;;;;;;5114709;28;20043;-74
2021/09/09 14:52:29;;;;;;;2.33;2.20;;;;;;;;;;5114942;28;20028;-81
2021/09/09 14:54:54;;;;;;;1.95;1.85;;;;;;;;;;5114374;28;20030;-77
2021/09/09 14:57:20;;;;;;;0.50;0.25;;;;;;;;;;5116742;28;20481;-88